Terminal Aerodrome Forecast
Issued by NWS

Home | Current Version | Previous Version | Text Only | Print | Product List | Glossary On
Versions: 1 2 3 4 5 6 7 8 9 10 11 12 13 14 15 16 17 18 19 20 21 22 23 24
000
FTUS45 KGJT 051125
TAFDRO
TAF
KDRO 051125Z 0512/0612 06003KT P6SM VCSH FEW050 FEW070 BKN120
     FM051800 24008KT P6SM VCTS SCT080CB BKN120
      TEMPO 0521/0524 VRB20G35KT -TSRA
     FM060000 31012KT P6SM VCSH OVC100
     FM060600 34006KT P6SM BKN200=

USA.gov is the U.S. government's official web portal to all federal, state and local government web resources and services.